KELP/ELP METAR and TAF weather

Enter ICAO airport designator
Station Type Date Time Source
KELP METAR 2018/12/10 20:51 UTC NOAA

KELP 102051Z 00000KT 10SM FEW240 13/M04 A3029 RMK AO2 SLP237 T01281044 56027


Station Type Date Time Source
KELP Decoded METAR 2018/12/10 20:51 UTC NOAA

EL PASO INTERNATIONAL AIRPORT , TX, United States (KELP) 31-49N 106-23W 1197M
Dec 10, 2018 - 03:51 PM EST / 2018.12.10 2051 UTC
Wind: Calm:0
Visibility: 10 mile(s):0
Sky conditions: mostly clear
Temperature: 55.0 F (12.8 C)
Dew Point: 24.1 F (-4.4 C)
Relative Humidity: 29%
Pressure (altimeter): 30.29 in. Hg (1025 hPa)
Pressure tendency: 0.08 inches (2.7 hPa) lower than three hours ago
ob: KELP 102051Z 00000KT 10SM FEW240 13/M04 A3029 RMK AO2 SLP237 T01281044 56027
cycle: 21

Station Type Date Time Source
KELP TAF 2018/12/10 18:36 UTC NOAA

TAF KELP 101733Z 1018/1118 03010KT P6SM SCT200
FM102300 07005KT P6SM BKN250


Example: see airport list